Time,TemperatureF,DewpointF,PressureIn,WindDirection,WindDirectionDegrees,WindSpeedMPH,WindSpeedGustMPH,Humidity,HourlyPrecipIn,Conditions,Clouds,dailyrainin,SoftwareType,DateUTC
2013-10-02 00:00:00,63.1,59.2,30.09,SSW,206,0.0,0.0,87,0.00,,,0.00,Wunderground v.1.13,2013-10-02 04:00:00,
2013-10-02 00:10:00,63.0,58.7,30.09,SSW,206,0.0,0.0,86,0.00,,,0.00,Wunderground v.1.13,2013-10-02 04:10:00,
2013-10-02 00:20:00,62.6,58.7,30.09,SSW,206,0.0,0.0,87,0.00,,,0.00,Wunderground v.1.13,2013-10-02 04:20:00,
2013-10-02 00:30:00,62.5,58.9,30.09,SSW,206,0.0,0.0,88,0.00,,,0.00,Wunderground v.1.13,2013-10-02 04:30:00,
2013-10-02 00:40:00,62.3,58.4,30.09,SSW,206,0.0,0.0,87,0.00,,,0.00,Wunderground v.1.13,2013-10-02 04:40:00,
2013-10-02 00:50:00,62.0,58.4,30.09,SSW,206,0.0,0.0,88,0.00,,,0.00,Wunderground v.1.13,2013-10-02 04:50:00,
2013-10-02 01:00:00,61.9,58.6,30.09,SSW,206,0.0,0.0,89,0.00,,,0.00,Wunderground v.1.13,2013-10-02 05:00:00,
2013-10-02 01:10:00,61.7,58.4,30.09,SSW,206,0.0,0.0,89,0.00,,,0.00,Wunderground v.1.13,2013-10-02 05:10:00,
2013-10-02 01:20:00,61.7,58.4,30.09,SSW,206,0.0,0.0,89,0.00,,,0.00,Wunderground v.1.13,2013-10-02 05:20:00,
2013-10-02 01:30:00,61.7,58.4,30.09,SSW,206,0.0,0.0,89,0.00,,,0.00,Wunderground v.1.13,2013-10-02 05:30:00,
2013-10-02 01:40:00,61.7,58.4,30.09,SSW,206,0.0,0.0,89,0.00,,,0.00,Wunderground v.1.13,2013-10-02 05:40:00,
2013-10-02 01:50:00,61.5,58.5,30.09,SSW,206,0.0,0.0,90,0.00,,,0.00,Wunderground v.1.13,2013-10-02 05:50:00,
2013-10-02 02:00:00,61.4,58.4,30.09,SSW,206,0.0,0.0,90,0.00,,,0.00,Wunderground v.1.13,2013-10-02 06:00:00,
2013-10-02 02:10:00,61.2,58.2,30.09,SSW,206,0.0,0.0,90,0.00,,,0.00,Wunderground v.1.13,2013-10-02 06:10:00,
2013-10-02 02:20:00,61.1,58.1,30.09,SSW,206,0.0,0.0,90,0.00,,,0.00,Wunderground v.1.13,2013-10-02 06:20:00,
2013-10-02 02:30:00,60.9,57.9,30.09,SSW,206,0.0,0.0,90,0.00,,,0.00,Wunderground v.1.13,2013-10-02 06:30:00,
2013-10-02 02:40:00,60.9,57.9,30.09,SSW,206,0.0,0.0,90,0.00,,,0.00,Wunderground v.1.13,2013-10-02 06:40:00,
2013-10-02 02:50:00,60.8,57.8,30.09,SSW,206,0.0,0.0,90,0.00,,,0.00,Wunderground v.1.13,2013-10-02 06:50:00,
2013-10-02 03:00:00,60.6,58.0,30.08,SSW,206,0.0,0.0,91,0.00,,,0.00,Wunderground v.1.13,2013-10-02 07:00:00,
2013-10-02 03:10:00,60.3,57.7,30.07,SSW,206,0.0,0.0,91,0.00,,,0.00,Wunderground v.1.13,2013-10-02 07:10:00,
2013-10-02 03:20:00,60.1,57.8,30.07,SSW,206,0.0,0.0,92,0.00,,,0.00,Wunderground v.1.13,2013-10-02 07:20:00,
2013-10-02 03:30:00,59.8,57.5,30.07,SSW,206,0.0,0.0,92,0.00,,,0.00,Wunderground v.1.13,2013-10-02 07:30:00,
2013-10-02 03:40:00,59.5,57.5,30.07,SSW,206,0.0,0.0,93,0.00,,,0.00,Wunderground v.1.13,2013-10-02 07:40:00,
2013-10-02 03:50:00,59.4,57.7,30.07,SSW,206,0.0,0.0,94,0.00,,,0.00,Wunderground v.1.13,2013-10-02 07:50:00,
2013-10-02 04:00:00,59.4,57.7,30.07,SSW,206,0.0,0.0,94,0.00,,,0.00,Wunderground v.1.13,2013-10-02 08:00:00,
2013-10-02 04:10:00,59.2,57.8,30.07,SSW,206,0.0,0.0,95,0.00,,,0.00,Wunderground v.1.13,2013-10-02 08:10:00,
2013-10-02 04:20:00,59.1,57.7,30.07,SSW,206,0.0,0.0,95,0.00,,,0.00,Wunderground v.1.13,2013-10-02 08:20:00,
2013-10-02 04:30:00,59.1,57.7,30.07,SSW,206,0.0,0.0,95,0.00,,,0.00,Wunderground v.1.13,2013-10-02 08:30:00,
2013-10-02 04:40:00,58.9,57.8,30.08,SSW,206,0.0,0.0,96,0.00,,,0.00,Wunderground v.1.13,2013-10-02 08:40:00,
2013-10-02 04:50:00,59.1,58.2,30.08,SSW,206,0.0,0.0,97,0.00,,,0.00,Wunderground v.1.13,2013-10-02 08:50:00,
2013-10-02 05:00:00,59.4,58.8,30.09,SSW,206,0.0,0.0,98,0.00,,,0.00,Wunderground v.1.13,2013-10-02 09:00:00,
2013-10-02 05:10:00,59.8,59.8,30.08,SSW,206,0.0,0.0,100,0.00,,,0.00,Wunderground v.1.13,2013-10-02 09:10:00,
2013-10-02 05:20:00,60.0,60.0,30.08,SSW,206,0.0,0.0,100,0.00,,,0.00,Wunderground v.1.13,2013-10-02 09:20:00,
2013-10-02 05:30:00,60.1,60.1,30.08,SSW,206,0.0,0.0,100,0.00,,,0.00,Wunderground v.1.13,2013-10-02 09:30:00,
2013-10-02 05:40:00,60.1,60.1,30.09,SSW,206,0.0,0.0,100,0.00,,,0.00,Wunderground v.1.13,2013-10-02 09:40:00,
2013-10-02 05:50:00,60.1,60.1,30.09,SSW,206,0.0,0.0,100,0.00,,,0.00,Wunderground v.1.13,2013-10-02 09:50:00,
2013-10-02 06:00:00,60.1,60.1,30.09,SSW,206,0.0,0.0,100,0.00,,,0.00,Wunderground v.1.13,2013-10-02 10:00:00,
2013-10-02 06:10:00,60.0,60.0,30.09,SSW,206,0.0,0.0,100,0.00,,,0.00,Wunderground v.1.13,2013-10-02 10:10:00,
2013-10-02 06:20:00,60.0,60.0,30.09,SSW,206,0.0,0.0,100,0.00,,,0.00,Wunderground v.1.13,2013-10-02 10:20:00,
2013-10-02 06:30:00,60.0,60.0,30.10,SSW,206,0.0,0.0,100,0.00,,,0.00,Wunderground v.1.13,2013-10-02 10:30:00,
2013-10-02 06:40:00,60.0,60.0,30.11,SSW,206,0.0,0.0,100,0.00,,,0.00,Wunderground v.1.13,2013-10-02 10:40:00,
2013-10-02 06:50:00,60.0,60.0,30.11,SSW,206,0.0,0.0,100,0.00,,,0.00,Wunderground v.1.13,2013-10-02 10:50:00,
2013-10-02 07:00:00,59.8,59.8,30.11,SSW,206,0.0,0.0,100,0.00,,,0.00,Wunderground v.1.13,2013-10-02 11:00:00,
2013-10-02 07:10:00,59.8,59.8,30.12,SSW,206,0.0,0.0,100,0.00,,,0.00,Wunderground v.1.13,2013-10-02 11:10:00,
2013-10-02 07:20:00,59.8,59.8,30.12,SSW,206,0.0,0.0,100,0.00,,,0.00,Wunderground v.1.13,2013-10-02 11:20:00,
2013-10-02 07:30:00,60.0,60.0,30.13,SSW,206,0.0,0.0,100,0.00,,,0.00,Wunderground v.1.13,2013-10-02 11:30:00,
2013-10-02 07:40:00,60.0,60.0,30.13,SSW,206,0.0,0.0,100,0.00,,,0.00,Wunderground v.1.13,2013-10-02 11:40:00,
2013-10-02 07:50:00,60.1,60.1,30.13,SSW,206,0.0,0.0,100,0.00,,,0.00,Wunderground v.1.13,2013-10-02 11:50:00,
2013-10-02 08:00:00,60.3,60.3,30.13,SSW,206,0.0,0.0,100,0.00,,,0.00,Wunderground v.1.13,2013-10-02 12:00:00,
2013-10-02 08:10:00,60.4,60.4,30.14,SSW,206,0.0,0.0,100,0.00,,,0.00,Wunderground v.1.13,2013-10-02 12:10:00,
2013-10-02 08:20:00,60.6,60.6,30.14,SSW,206,0.0,0.0,100,0.00,,,0.00,Wunderground v.1.13,2013-10-02 12:20:00,
2013-10-02 08:30:00,60.6,60.6,30.14,SSW,206,0.0,0.0,100,0.00,,,0.00,Wunderground v.1.13,2013-10-02 12:30:00,
2013-10-02 08:40:00,60.6,60.6,30.15,SSW,206,0.0,0.0,100,0.00,,,0.00,Wunderground v.1.13,2013-10-02 12:40:00,
2013-10-02 08:50:00,60.9,60.9,30.15,SSW,206,0.0,0.0,100,0.00,,,0.00,Wunderground v.1.13,2013-10-02 12:50:00,
2013-10-02 09:00:00,61.1,61.1,30.15,NNW,333,0.0,0.0,100,0.00,,,0.00,Wunderground v.1.13,2013-10-02 13:00:00,
2013-10-02 09:10:00,61.4,61.4,30.16,NNW,333,0.0,0.0,100,0.00,,,0.00,Wunderground v.1.13,2013-10-02 13:10:00,
2013-10-02 09:20:00,61.5,61.5,30.16,NNW,333,0.0,0.0,100,0.00,,,0.00,Wunderground v.1.13,2013-10-02 13:20:00,
2013-10-02 09:30:00,62.0,62.0,30.16,NNW,333,0.0,0.0,100,0.00,,,0.00,Wunderground v.1.13,2013-10-02 13:30:00,
2013-10-02 09:40:00,62.5,62.5,30.15,NNW,331,0.0,0.0,100,0.00,,,0.00,Wunderground v.1.13,2013-10-02 13:40:00,
2013-10-02 09:50:00,62.6,62.6,30.15,NNW,331,0.0,0.0,100,0.00,,,0.00,Wunderground v.1.13,2013-10-02 13:50:00,
2013-10-02 10:00:00,63.0,63.0,30.16,NNW,331,0.0,0.0,100,0.00,,,0.00,Wunderground v.1.13,2013-10-02 14:00:00,
2013-10-02 10:10:00,63.6,63.6,30.16,NNW,331,0.0,0.0,100,0.00,,,0.00,Wunderground v.1.13,2013-10-02 14:10:00,
2013-10-02 10:20:00,64.7,63.5,30.16,NNW,331,0.0,0.0,96,0.00,,,0.00,Wunderground v.1.13,2013-10-02 14:20:00,
2013-10-02 10:30:00,66.3,64.5,30.15,NNW,331,0.0,0.0,94,0.00,,,0.00,Wunderground v.1.13,2013-10-02 14:30:00,
2013-10-02 10:40:00,68.7,64.0,30.15,NNW,331,0.0,0.0,85,0.00,,,0.00,Wunderground v.1.13,2013-10-02 14:40:00,
2013-10-02 10:50:00,69.7,63.6,30.15,NNW,331,0.0,0.0,81,0.00,,,0.00,Wunderground v.1.13,2013-10-02 14:50:00,
2013-10-02 11:00:00,70.0,63.2,30.14,NW,325,0.0,0.0,79,0.00,,,0.00,Wunderground v.1.13,2013-10-02 15:00:00,
2013-10-02 11:10:00,71.4,64.5,30.14,NW,325,0.0,0.0,79,0.00,,,0.00,Wunderground v.1.13,2013-10-02 15:10:00,
2013-10-02 11:20:00,71.4,64.2,30.14,NW,325,0.0,0.0,78,0.00,,,0.00,Wunderground v.1.13,2013-10-02 15:20:00,
2013-10-02 11:30:00,71.9,63.5,30.13,NW,325,0.0,0.0,75,0.00,,,0.00,Wunderground v.1.13,2013-10-02 15:30:00,
2013-10-02 11:40:00,72.6,64.6,30.14,NW,325,0.0,0.0,76,0.00,,,0.00,Wunderground v.1.13,2013-10-02 15:40:00,
2013-10-02 11:50:00,73.8,64.6,30.14,NW,325,0.0,0.0,73,0.00,,,0.00,Wunderground v.1.13,2013-10-02 15:50:00,
2013-10-02 12:00:00,74.8,65.2,30.13,NW,325,0.0,0.0,72,0.00,,,0.00,Wunderground v.1.13,2013-10-02 16:00:00,
2013-10-02 12:10:00,75.9,65.0,30.12,NW,325,0.0,0.0,69,0.00,,,0.00,Wunderground v.1.13,2013-10-02 16:10:00,
2013-10-02 12:20:00,76.7,64.0,30.12,NW,325,0.0,0.0,65,0.00,,,0.00,Wunderground v.1.13,2013-10-02 16:20:00,
2013-10-02 12:30:00,77.5,63.9,30.11,WNW,291,0.0,0.0,63,0.00,,,0.00,Wunderground v.1.13,2013-10-02 16:30:00,
2013-10-02 12:40:00,77.8,64.6,30.11,WNW,292,0.0,0.0,64,0.00,,,0.00,Wunderground v.1.13,2013-10-02 16:40:00,
2013-10-02 12:50:00,77.8,64.2,30.11,NNW,331,0.0,0.0,63,0.00,,,0.00,Wunderground v.1.13,2013-10-02 16:50:00,
2013-10-02 13:00:00,78.4,63.4,30.11,NNW,331,0.0,0.0,60,0.00,,,0.00,Wunderground v.1.13,2013-10-02 17:00:00,
2013-10-02 13:10:00,78.7,64.1,30.10,NNW,331,0.0,0.0,61,0.00,,,0.00,Wunderground v.1.13,2013-10-02 17:10:00,
2013-10-02 13:20:00,78.0,64.8,30.10,NNW,331,0.0,0.0,64,0.00,,,0.00,Wunderground v.1.13,2013-10-02 17:20:00,
2013-10-02 13:30:00,76.9,64.2,30.10,WNW,294,0.0,0.0,65,0.00,,,0.00,Wunderground v.1.13,2013-10-02 17:30:00,
2013-10-02 13:40:00,77.5,63.9,30.09,NNW,330,0.0,0.0,63,0.00,,,0.00,Wunderground v.1.13,2013-10-02 17:40:00,
2013-10-02 13:50:00,77.8,64.2,30.09,NNW,330,0.0,0.0,63,0.00,,,0.00,Wunderground v.1.13,2013-10-02 17:50:00,
2013-10-02 14:00:00,78.4,63.8,30.08,SW,232,0.0,0.0,61,0.00,,,0.00,Wunderground v.1.13,2013-10-02 18:00:00,
2013-10-02 14:10:00,78.2,64.6,30.08,SW,232,0.0,0.0,63,0.00,,,0.00,Wunderground v.1.13,2013-10-02 18:10:00,
2013-10-02 14:20:00,78.4,63.4,30.08,SW,232,0.0,0.0,60,0.00,,,0.00,Wunderground v.1.13,2013-10-02 18:20:00,
2013-10-02 14:30:00,79.5,62.4,30.07,SW,232,0.0,0.0,56,0.00,,,0.00,Wunderground v.1.13,2013-10-02 18:30:00,
2013-10-02 14:40:00,79.7,63.1,30.07,SW,216,0.0,0.0,57,0.00,,,0.00,Wunderground v.1.13,2013-10-02 18:40:00,
2013-10-02 14:50:00,78.9,62.9,30.07,SW,216,0.0,0.0,58,0.00,,,0.00,Wunderground v.1.13,2013-10-02 18:50:00,
2013-10-02 15:00:00,78.7,62.2,30.07,SW,216,0.0,0.0,57,0.00,,,0.00,Wunderground v.1.13,2013-10-02 19:00:00,
2013-10-02 15:10:00,78.7,60.7,30.06,SW,214,0.0,0.0,54,0.00,,,0.00,Wunderground v.1.13,2013-10-02 19:10:00,
2013-10-02 15:20:00,79.1,63.1,30.06,South,170,0.0,0.0,58,0.00,,,0.00,Wunderground v.1.13,2013-10-02 19:20:00,
2013-10-02 15:30:00,79.1,63.5,30.05,South,170,0.0,0.0,59,0.00,,,0.00,Wunderground v.1.13,2013-10-02 19:30:00,
2013-10-02 15:40:00,80.2,63.6,30.05,South,170,0.0,0.0,57,0.00,,,0.00,Wunderground v.1.13,2013-10-02 19:40:00,
2013-10-02 15:50:00,80.2,62.6,30.05,South,170,0.0,0.0,55,0.00,,,0.00,Wunderground v.1.13,2013-10-02 19:50:00,
2013-10-02 16:00:00,81.3,60.9,30.05,ENE,59,0.0,0.0,50,0.00,,,0.00,Wunderground v.1.13,2013-10-02 20:00:00,
2013-10-02 16:10:00,81.1,60.1,30.05,ENE,59,0.0,0.0,49,0.00,,,0.00,Wunderground v.1.13,2013-10-02 20:10:00,
2013-10-02 16:20:00,80.6,64.0,30.05,ENE,59,0.0,0.0,57,0.00,,,0.00,Wunderground v.1.13,2013-10-02 20:20:00,
2013-10-02 16:30:00,81.1,60.1,30.05,ENE,59,0.0,0.0,49,0.00,,,0.00,Wunderground v.1.13,2013-10-02 20:30:00,
2013-10-02 16:40:00,81.5,60.5,30.04,ENE,63,0.0,0.0,49,0.00,,,0.00,Wunderground v.1.13,2013-10-02 20:40:00,
2013-10-02 16:50:00,81.1,61.3,30.04,ENE,63,0.0,0.0,51,0.00,,,0.00,Wunderground v.1.13,2013-10-02 20:50:00,
2013-10-02 17:00:00,81.0,63.8,30.04,ENE,63,0.0,0.0,56,0.00,,,0.00,Wunderground v.1.13,2013-10-02 21:00:00,
2013-10-02 17:10:00,80.0,64.4,30.04,ENE,63,0.0,0.0,59,0.00,,,0.00,Wunderground v.1.13,2013-10-02 21:10:00,
2013-10-02 17:20:00,79.5,65.3,30.04,ENE,63,0.0,0.0,62,0.00,,,0.00,Wunderground v.1.13,2013-10-02 21:20:00,
2013-10-02 17:30:00,79.5,64.9,30.04,ENE,63,0.0,0.0,61,0.00,,,0.00,Wunderground v.1.13,2013-10-02 21:30:00,
2013-10-02 17:40:00,78.0,63.5,30.04,ENE,63,0.0,0.0,61,0.00,,,0.00,Wunderground v.1.13,2013-10-02 21:40:00,
2013-10-02 17:50:00,77.5,64.4,30.04,ENE,63,0.0,0.0,64,0.00,,,0.00,Wunderground v.1.13,2013-10-02 21:50:00,
2013-10-02 18:00:00,77.1,65.3,30.04,ENE,63,0.0,0.0,67,0.00,,,0.00,Wunderground v.1.13,2013-10-02 22:00:00,
2013-10-02 18:10:00,76.9,64.7,30.04,ENE,63,0.0,0.0,66,0.00,,,0.00,Wunderground v.1.13,2013-10-02 22:10:00,
2013-10-02 18:20:00,75.9,65.0,30.04,ENE,63,0.0,0.0,69,0.00,,,0.00,Wunderground v.1.13,2013-10-02 22:20:00,
2013-10-02 18:30:00,75.2,63.9,30.04,ENE,63,0.0,0.0,68,0.00,,,0.00,Wunderground v.1.13,2013-10-02 22:30:00,
2013-10-02 18:40:00,74.8,64.4,30.04,ENE,63,0.0,0.0,70,0.00,,,0.00,Wunderground v.1.13,2013-10-02 22:40:00,
2013-10-02 18:50:00,74.1,63.3,30.04,ENE,63,0.0,0.0,69,0.00,,,0.00,Wunderground v.1.13,2013-10-02 22:50:00,
2013-10-02 19:00:00,73.6,64.4,30.05,ENE,63,0.0,0.0,73,0.00,,,0.00,Wunderground v.1.13,2013-10-02 23:00:00,
2013-10-02 19:10:00,72.6,64.2,30.05,ENE,63,0.0,0.0,75,0.00,,,0.00,Wunderground v.1.13,2013-10-02 23:10:00,
2013-10-02 19:20:00,71.7,64.1,30.05,ENE,63,0.0,0.0,77,0.00,,,0.00,Wunderground v.1.13,2013-10-02 23:20:00,
2013-10-02 19:30:00,71.0,64.9,30.05,ENE,63,0.0,0.0,81,0.00,,,0.00,Wunderground v.1.13,2013-10-02 23:30:00,
2013-10-02 19:40:00,70.7,64.9,30.04,ENE,63,0.0,0.0,82,0.00,,,0.00,Wunderground v.1.13,2013-10-02 23:40:00,
2013-10-02 19:50:00,70.3,64.9,30.04,ENE,63,0.0,0.0,83,0.00,,,0.00,Wunderground v.1.13,2013-10-02 23:50:00,
2013-10-02 20:00:00,69.8,64.7,30.05,ENE,63,0.0,0.0,84,0.00,,,0.00,Wunderground v.1.13,2013-10-03 00:00:00,
2013-10-02 20:10:00,69.5,65.1,30.05,ENE,63,0.0,0.0,86,0.00,,,0.00,Wunderground v.1.13,2013-10-03 00:10:00,
2013-10-02 20:20:00,69.0,64.6,30.05,ENE,63,0.0,0.0,86,0.00,,,0.00,Wunderground v.1.13,2013-10-03 00:20:00,
2013-10-02 20:30:00,68.7,64.7,30.06,ENE,63,0.0,0.0,87,0.00,,,0.00,Wunderground v.1.13,2013-10-03 00:30:00,
2013-10-02 20:40:00,68.3,64.6,30.06,ENE,63,0.0,0.0,88,0.00,,,0.00,Wunderground v.1.13,2013-10-03 00:40:00,
2013-10-02 20:50:00,68.0,64.6,30.06,ENE,63,0.0,0.0,89,0.00,,,0.00,Wunderground v.1.13,2013-10-03 00:50:00,
2013-10-02 21:00:00,67.7,64.7,30.06,ENE,63,0.0,0.0,90,0.00,,,0.00,Wunderground v.1.13,2013-10-03 01:00:00,
2013-10-02 21:10:00,67.3,64.3,30.06,ENE,63,0.0,0.0,90,0.00,,,0.00,Wunderground v.1.13,2013-10-03 01:10:00,
2013-10-02 21:20:00,67.2,64.8,30.06,ENE,63,0.0,0.0,92,0.00,,,0.00,Wunderground v.1.13,2013-10-03 01:20:00,
2013-10-02 21:30:00,66.8,64.4,30.06,ENE,63,0.0,0.0,92,0.00,,,0.00,Wunderground v.1.13,2013-10-03 01:30:00,
2013-10-02 21:40:00,66.5,64.1,30.07,ENE,63,0.0,0.0,92,0.00,,,0.00,Wunderground v.1.13,2013-10-03 01:40:00,
2013-10-02 21:50:00,66.5,64.7,30.07,ENE,63,0.0,0.0,94,0.00,,,0.00,Wunderground v.1.13,2013-10-03 01:50:00,
2013-10-02 22:00:00,66.3,64.5,30.07,ENE,63,0.0,0.0,94,0.00,,,0.00,Wunderground v.1.13,2013-10-03 02:00:00,
2013-10-02 22:10:00,66.2,64.4,30.07,ENE,63,0.0,0.0,94,0.00,,,0.00,Wunderground v.1.13,2013-10-03 02:10:00,
2013-10-02 22:20:00,65.9,64.1,30.07,ENE,63,0.0,0.0,94,0.00,,,0.00,Wunderground v.1.13,2013-10-03 02:20:00,
2013-10-02 22:30:00,65.5,64.0,30.08,ENE,63,0.0,0.0,95,0.00,,,0.00,Wunderground v.1.13,2013-10-03 02:30:00,
2013-10-02 22:40:00,65.4,63.9,30.07,ENE,63,0.0,0.0,95,0.00,,,0.00,Wunderground v.1.13,2013-10-03 02:40:00,
2013-10-02 22:50:00,65.2,63.7,30.07,ENE,63,0.0,0.0,95,0.00,,,0.00,Wunderground v.1.13,2013-10-03 02:50:00,
2013-10-02 23:00:00,65.1,63.6,30.08,ENE,63,0.0,0.0,95,0.00,,,0.00,Wunderground v.1.13,2013-10-03 03:00:00,
2013-10-02 23:10:00,64.7,63.2,30.09,ENE,63,0.0,0.0,95,0.00,,,0.00,Wunderground v.1.13,2013-10-03 03:10:00,
2013-10-02 23:20:00,64.6,62.8,30.09,ENE,63,0.0,0.0,94,0.00,,,0.00,Wunderground v.1.13,2013-10-03 03:20:00,
2013-10-02 23:30:00,64.4,62.6,30.09,ENE,63,0.0,0.0,94,0.00,,,0.00,Wunderground v.1.13,2013-10-03 03:30:00,
2013-10-02 23:40:00,64.1,62.3,30.08,ENE,63,0.0,0.0,94,0.00,,,0.00,Wunderground v.1.13,2013-10-03 03:40:00,
2013-10-02 23:50:00,64.1,62.0,30.08,ENE,63,0.0,0.0,93,0.00,,,0.00,Wunderground v.1.13,2013-10-03 03:50:00,